Time;durP1;ratioP1;P1;durP2;ratioP2;P2;SDS_P1;SDS_P2;PMS_P1;PMS_P2;Temp;Humidity;BMP_temperature;BMP_pressure;BME280_temperature;BME280_humidity;BME280_pressure;Samples;Min_cycle;Max_cycle;Signal;HPM_P1;HPM_P2
2024/01/25 00:02:22;;;;;;;24.10;5.23;;;6.70;99.90;;;;;;5092524;28;20557;-77
2024/01/25 00:04:50;;;;;;;17.97;4.93;;;6.80;99.90;;;;;;5092627;28;20277;-78
2024/01/25 00:07:17;;;;;;;20.57;4.50;;;6.80;99.90;;;;;;5092884;28;20200;-77
2024/01/25 00:09:43;;;;;;;29.07;5.00;;;6.90;99.90;;;;;;5092929;28;20200;-77
2024/01/25 00:12:11;;;;;;;25.00;5.43;;;6.90;99.90;;;;;;5092621;28;20652;-76
2024/01/25 00:14:37;;;;;;;25.57;5.80;;;6.80;99.90;;;;;;5092774;28;20211;-77
2024/01/25 00:17:04;;;;;;;25.13;5.07;;;6.90;99.90;;;;;;5092568;28;20205;-77
2024/01/25 00:19:31;;;;;;;21.60;4.70;;;6.90;99.90;;;;;;5092533;28;20644;-76
2024/01/25 00:21:59;;;;;;;21.23;4.90;;;7.00;99.90;;;;;;5092704;28;20623;-77
2024/01/25 00:24:27;;;;;;;26.93;5.10;;;6.90;99.90;;;;;;5092671;28;20253;-78
2024/01/25 00:26:53;;;;;;;20.97;4.63;;;6.90;99.90;;;;;;5092692;28;20203;-76
2024/01/25 00:29:20;;;;;;;22.83;5.50;;;6.90;99.90;;;;;;5092328;28;20228;-76
2024/01/25 00:31:47;;;;;;;18.07;4.50;;;6.90;99.90;;;;;;5092362;28;20219;-77
2024/01/25 00:34:14;;;;;;;19.80;4.77;;;6.90;99.90;;;;;;5092706;28;20265;-76
2024/01/25 00:36:41;;;;;;;21.03;4.80;;;6.90;99.90;;;;;;5092638;28;20198;-77
2024/01/25 00:39:10;;;;;;;22.33;4.63;;;6.90;99.90;;;;;;5092497;28;20204;-76
2024/01/25 00:41:36;;;;;;;22.00;4.87;;;7.00;99.90;;;;;;5092516;28;20607;-77
2024/01/25 00:44:04;;;;;;;20.60;4.70;;;6.90;99.90;;;;;;5092288;28;20254;-76
2024/01/25 00:46:31;;;;;;;25.73;4.90;;;6.90;99.90;;;;;;5092339;28;20200;-76
2024/01/25 00:48:58;;;;;;;16.50;4.37;;;6.90;99.90;;;;;;5092240;28;20678;-77
2024/01/25 00:51:25;;;;;;;17.13;4.80;;;7.00;99.90;;;;;;5094178;28;20200;-77
2024/01/25 00:53:52;;;;;;;19.47;4.70;;;7.00;99.90;;;;;;5096245;28;20207;-76
2024/01/25 00:56:21;;;;;;;26.03;5.37;;;7.00;99.90;;;;;;5096013;28;20245;-77
2024/01/25 00:58:49;;;;;;;19.87;5.60;;;7.10;99.90;;;;;;5096074;28;20246;-77
2024/01/25 01:01:16;;;;;;;18.07;4.37;;;7.10;99.90;;;;;;5096302;28;20265;-76
2024/01/25 01:03:43;;;;;;;27.80;5.43;;;7.10;99.90;;;;;;5096081;28;20274;-76
2024/01/25 01:06:11;;;;;;;21.53;5.00;;;7.10;99.90;;;;;;5095886;28;20666;-76
2024/01/25 01:08:38;;;;;;;22.40;5.03;;;7.10;99.90;;;;;;5103863;28;20605;-77
2024/01/25 01:11:05;;;;;;;15.87;4.97;;;7.10;99.90;;;;;;5095809;28;20239;-76
2024/01/25 01:13:33;;;;;;;26.03;5.50;;;7.00;99.90;;;;;;5095681;28;20643;-77
2024/01/25 01:15:59;;;;;;;19.07;4.27;;;7.00;99.90;;;;;;5095804;28;20258;-78
2024/01/25 01:18:26;;;;;;;29.17;5.37;;;7.00;99.90;;;;;;5095783;28;20196;-77
2024/01/25 01:20:53;;;;;;;19.13;5.03;;;7.00;99.90;;;;;;5095765;28;20254;-77
2024/01/25 01:23:19;;;;;;;21.47;5.20;;;7.00;99.90;;;;;;5095503;28;20220;-77
2024/01/25 01:25:46;;;;;;;21.57;5.10;;;7.00;99.90;;;;;;5095393;28;20254;-77
2024/01/25 01:28:13;;;;;;;19.00;5.30;;;7.00;99.90;;;;;;5095440;28;20243;-78
2024/01/25 01:30:41;;;;;;;21.77;5.30;;;7.00;99.90;;;;;;5095530;28;20196;-77
2024/01/25 01:33:09;;;;;;;19.57;5.00;;;7.00;99.90;;;;;;5095573;28;20292;-77
2024/01/25 01:35:35;;;;;;;22.17;5.10;;;7.00;99.90;;;;;;5095319;28;20193;-77
2024/01/25 01:38:02;;;;;;;22.07;5.00;;;7.00;99.90;;;;;;5095338;28;20200;-77
2024/01/25 01:40:29;;;;;;;19.67;5.17;;;6.90;99.90;;;;;;5095263;28;20192;-77
2024/01/25 01:43:00;;;;;;;24.40;5.50;;;7.00;99.90;;;;;;5095307;28;20224;-77
2024/01/25 01:45:26;;;;;;;19.70;4.83;;;6.90;99.90;;;;;;5095307;28;20250;-77
2024/01/25 01:47:55;;;;;;;18.77;4.97;;;6.90;99.90;;;;;;5095381;28;20197;-77
2024/01/25 01:50:21;;;;;;;21.73;4.77;;;7.00;99.90;;;;;;5095161;28;20204;-76
2024/01/25 01:52:49;;;;;;;25.27;5.27;;;6.90;99.90;;;;;;5095026;28;20206;-77
2024/01/25 01:55:17;;;;;;;22.60;5.37;;;6.80;99.90;;;;;;5095143;28;20204;-77
2024/01/25 01:57:44;;;;;;;15.23;4.07;;;6.80;99.90;;;;;;5095130;28;20200;-77
2024/01/25 02:00:12;;;;;;;21.37;5.60;;;6.80;99.90;;;;;;5094826;28;20670;-77
2024/01/25 02:02:39;;;;;;;20.10;4.87;;;6.70;99.90;;;;;;5094032;28;20246;-77
2024/01/25 02:05:07;;;;;;;18.17;5.03;;;6.70;99.90;;;;;;5094753;28;20266;-76
2024/01/25 02:07:34;;;;;;;22.13;4.63;;;6.70;99.90;;;;;;5094638;28;20200;-77
2024/01/25 02:10:01;;;;;;;19.40;5.03;;;6.70;99.90;;;;;;5094921;28;20196;-77
2024/01/25 02:12:27;;;;;;;24.97;4.73;;;6.70;99.90;;;;;;5094717;28;20203;-77
2024/01/25 02:14:54;;;;;;;17.63;4.57;;;6.80;99.90;;;;;;5094512;28;20533;-77
2024/01/25 02:17:21;;;;;;;20.70;4.80;;;6.80;99.90;;;;;;5094349;28;20551;-76
2024/01/25 02:19:47;;;;;;;20.53;4.87;;;6.80;99.90;;;;;;5094469;28;20209;-76
2024/01/25 02:22:18;;;;;;;16.57;4.63;;;6.80;99.90;;;;;;5094393;28;20250;-77
2024/01/25 02:24:45;;;;;;;20.80;5.27;;;6.80;99.90;;;;;;5094393;28;20220;-76
2024/01/25 02:27:11;;;;;;;15.77;4.47;;;6.80;99.90;;;;;;5094142;28;20732;-77
2024/01/25 02:29:38;;;;;;;21.93;5.17;;;6.80;99.90;;;;;;5094302;28;20279;-76
2024/01/25 02:32:06;;;;;;;19.90;4.67;;;6.80;99.90;;;;;;5094389;28;20351;-76
2024/01/25 02:34:32;;;;;;;20.10;4.57;;;6.80;99.90;;;;;;5094117;28;20208;-76
2024/01/25 02:36:59;;;;;;;22.43;5.13;;;6.80;99.90;;;;;;5094328;28;20204;-76
2024/01/25 02:39:27;;;;;;;17.73;4.67;;;6.80;99.90;;;;;;5094146;28;20226;-76
2024/01/25 02:41:54;;;;;;;25.13;5.00;;;6.80;99.90;;;;;;5094215;28;20197;-76
2024/01/25 02:44:20;;;;;;;22.53;4.70;;;6.80;99.90;;;;;;5093992;28;20232;-76
2024/01/25 02:46:47;;;;;;;13.83;4.63;;;6.80;99.90;;;;;;5093934;28;20196;-76
2024/01/25 02:49:14;;;;;;;20.97;5.50;;;6.80;99.90;;;;;;5093947;28;20204;-76
2024/01/25 02:51:40;;;;;;;16.17;5.03;;;6.90;99.90;;;;;;5094030;28;20196;-76
2024/01/25 02:54:07;;;;;;;16.93;4.53;;;6.90;99.90;;;;;;5093901;28;20197;-77
2024/01/25 02:56:35;;;;;;;20.27;5.00;;;6.90;99.90;;;;;;5093826;28;20200;-76
2024/01/25 02:59:02;;;;;;;20.20;4.73;;;6.90;99.90;;;;;;5093753;28;20196;-76
2024/01/25 03:01:28;;;;;;;17.50;4.53;;;6.80;99.90;;;;;;5093647;28;20197;-77
2024/01/25 03:03:55;;;;;;;14.27;3.87;;;6.80;99.90;;;;;;5093439;28;20278;-77
2024/01/25 03:06:22;;;;;;;17.77;4.50;;;6.70;99.90;;;;;;5093741;28;20424;-77
2024/01/25 03:08:48;;;;;;;17.97;4.30;;;6.80;99.90;;;;;;5093394;28;20551;-76
2024/01/25 03:11:15;;;;;;;19.03;5.00;;;6.80;99.90;;;;;;5093615;28;20198;-77
2024/01/25 03:13:43;;;;;;;17.67;4.37;;;6.80;99.90;;;;;;5093565;28;20196;-77
2024/01/25 03:16:09;;;;;;;18.00;4.73;;;6.70;99.90;;;;;;5093444;28;20200;-76
2024/01/25 03:18:36;;;;;;;26.40;5.00;;;6.70;99.90;;;;;;5093602;28;20200;-76
2024/01/25 03:21:03;;;;;;;17.43;4.53;;;6.70;99.90;;;;;;5093313;28;20667;-77
2024/01/25 03:23:30;;;;;;;19.60;4.83;;;6.70;99.90;;;;;;5093359;28;20265;-77
2024/01/25 03:25:56;;;;;;;18.00;4.80;;;6.60;99.90;;;;;;5093389;28;20637;-78
2024/01/25 03:28:23;;;;;;;21.03;5.40;;;6.50;99.90;;;;;;5093139;28;20629;-76
2024/01/25 03:30:51;;;;;;;18.43;4.63;;;6.40;99.90;;;;;;5093057;28;20578;-77
2024/01/25 03:33:17;;;;;;;16.07;4.60;;;6.40;99.90;;;;;;5093131;28;20656;-77
2024/01/25 03:35:44;;;;;;;15.00;4.47;;;6.40;99.90;;;;;;5093238;28;20223;-77
2024/01/25 03:38:13;;;;;;;15.43;4.90;;;6.40;99.90;;;;;;5093174;28;20203;-77
2024/01/25 03:40:40;;;;;;;20.57;4.93;;;6.40;99.90;;;;;;5093076;28;20196;-77
2024/01/25 03:43:07;;;;;;;23.70;4.57;;;6.50;99.90;;;;;;5093023;28;20201;-77
2024/01/25 03:45:33;;;;;;;20.37;5.30;;;6.50;99.90;;;;;;5093216;28;20201;-77
2024/01/25 03:48:01;;;;;;;15.73;4.50;;;6.70;99.90;;;;;;5093109;28;20192;-76
2024/01/25 03:50:28;;;;;;;20.43;4.57;;;6.70;99.90;;;;;;5093055;28;20274;-77
2024/01/25 03:52:55;;;;;;;15.87;4.57;;;6.70;99.90;;;;;;5093037;28;20200;-77
2024/01/25 03:55:22;;;;;;;19.17;4.27;;;6.70;99.90;;;;;;5092698;28;20287;-77
2024/01/25 03:57:48;;;;;;;13.73;4.00;;;6.70;99.90;;;;;;5092903;28;20205;-77
2024/01/25 04:00:16;;;;;;;15.03;4.20;;;6.70;99.90;;;;;;5092746;28;20325;-77
2024/01/25 04:02:42;;;;;;;13.93;3.90;;;6.70;99.90;;;;;;5092713;28;20204;-76
2024/01/25 04:05:11;;;;;;;18.93;4.93;;;6.60;99.90;;;;;;5092796;28;20232;-77
2024/01/25 04:07:37;;;;;;;18.20;4.80;;;6.60;99.90;;;;;;5092904;28;20200;-77
2024/01/25 04:10:04;;;;;;;20.57;4.07;;;6.60;99.90;;;;;;5092843;28;20207;-77
2024/01/25 04:12:32;;;;;;;24.43;5.10;;;6.60;99.90;;;;;;5092505;28;20648;-77
2024/01/25 04:14:59;;;;;;;17.27;4.03;;;6.60;99.90;;;;;;5092993;28;20406;-77
2024/01/25 04:17:26;;;;;;;19.40;5.03;;;6.60;99.90;;;;;;5092828;28;20202;-77
2024/01/25 04:19:53;;;;;;;15.50;3.90;;;6.70;99.90;;;;;;5092689;28;20204;-77
2024/01/25 04:22:21;;;;;;;20.77;5.40;;;6.70;99.90;;;;;;5092717;28;20196;-77
2024/01/25 04:24:49;;;;;;;20.13;4.90;;;6.70;99.90;;;;;;5092659;28;20219;-77
2024/01/25 04:27:16;;;;;;;24.33;5.00;;;6.70;99.90;;;;;;5096419;28;20207;-77
2024/01/25 04:29:43;;;;;;;21.17;4.80;;;6.70;99.90;;;;;;5097116;28;20200;-77
2024/01/25 04:32:10;;;;;;;24.27;4.83;;;6.70;99.90;;;;;;5097147;28;20201;-77
2024/01/25 04:34:37;;;;;;;16.53;4.70;;;6.80;99.90;;;;;;5103019;28;20196;-76
2024/01/25 04:37:04;;;;;;;23.53;5.67;;;6.80;99.90;;;;;;5102713;28;20192;-77
2024/01/25 04:39:32;;;;;;;27.03;5.03;;;6.80;99.90;;;;;;5096623;28;20192;-76
2024/01/25 04:41:58;;;;;;;15.47;4.37;;;6.80;99.90;;;;;;5096165;28;20204;-77
2024/01/25 04:44:25;;;;;;;22.70;5.73;;;6.80;99.90;;;;;;5096480;28;20232;-76
2024/01/25 04:46:54;;;;;;;20.53;4.70;;;6.70;99.90;;;;;;5096433;28;20295;-76
2024/01/25 04:49:20;;;;;;;26.30;4.53;;;6.60;99.90;;;;;;5096410;28;20232;-76
2024/01/25 04:51:47;;;;;;;22.10;4.77;;;6.60;99.90;;;;;;5096383;28;20593;-76
2024/01/25 04:54:15;;;;;;;18.30;4.23;;;6.50;99.90;;;;;;5096119;28;20196;-77
2024/01/25 04:56:43;;;;;;;21.57;4.83;;;6.40;99.90;;;;;;5096340;28;20196;-76
2024/01/25 04:59:09;;;;;;;20.30;4.53;;;6.40;99.90;;;;;;5096282;28;20253;-77
2024/01/25 05:01:36;;;;;;;21.70;4.87;;;6.40;99.90;;;;;;5096150;28;20248;-76
2024/01/25 05:04:03;;;;;;;18.57;5.03;;;6.30;99.90;;;;;;5096012;28;20225;-76
2024/01/25 05:06:30;;;;;;;17.17;4.30;;;6.30;99.90;;;;;;5095844;28;20198;-77
2024/01/25 05:08:57;;;;;;;18.73;4.07;;;6.20;99.90;;;;;;5095844;28;20268;-77
2024/01/25 05:11:23;;;;;;;23.47;4.57;;;6.10;99.90;;;;;;5095953;28;20249;-76
2024/01/25 05:13:51;;;;;;;16.97;4.70;;;6.00;99.90;;;;;;5095867;28;20204;-76
2024/01/25 05:16:18;;;;;;;25.70;4.80;;;6.00;99.90;;;;;;5095726;28;20644;-76
2024/01/25 05:18:45;;;;;;;20.60;4.83;;;6.00;99.90;;;;;;5095726;28;20602;-77
2024/01/25 05:21:11;;;;;;;21.23;4.50;;;6.00;99.90;;;;;;5095608;28;20257;-77
2024/01/25 05:23:38;;;;;;;21.43;5.00;;;6.00;99.90;;;;;;5095717;28;20612;-76
2024/01/25 05:26:06;;;;;;;27.17;5.03;;;6.00;99.90;;;;;;5095490;28;20651;-77
2024/01/25 05:28:32;;;;;;;20.90;4.80;;;6.00;99.90;;;;;;5095434;28;20235;-77
2024/01/25 05:31:00;;;;;;;26.70;5.37;;;6.00;99.90;;;;;;5095490;28;20196;-77
2024/01/25 05:33:27;;;;;;;21.33;4.50;;;5.90;99.90;;;;;;5095318;28;20579;-77
2024/01/25 05:35:53;;;;;;;21.57;4.60;;;5.90;99.90;;;;;;5095233;28;20204;-76
2024/01/25 05:38:20;;;;;;;21.57;5.27;;;5.90;99.90;;;;;;5094191;28;20193;-76
2024/01/25 05:40:46;;;;;;;13.90;4.37;;;6.00;99.90;;;;;;5095137;28;20640;-77
2024/01/25 05:43:13;;;;;;;23.73;5.53;;;6.00;99.90;;;;;;5095206;28;20668;-77
2024/01/25 05:45:40;;;;;;;20.20;5.03;;;6.00;99.90;;;;;;5095111;28;20582;-77
2024/01/25 05:48:08;;;;;;;23.17;4.87;;;5.90;99.90;;;;;;5095194;28;20247;-76
2024/01/25 05:50:35;;;;;;;16.63;4.83;;;5.90;99.90;;;;;;5095041;28;20230;-76
2024/01/25 05:53:01;;;;;;;22.27;5.83;;;5.90;99.90;;;;;;5095229;28;20204;-76
2024/01/25 05:55:28;;;;;;;14.33;4.83;;;6.00;99.90;;;;;;5095057;28;20253;-76
2024/01/25 05:57:55;;;;;;;16.60;5.00;;;5.90;99.90;;;;;;5095087;28;20200;-77
2024/01/25 06:00:21;;;;;;;23.17;5.10;;;5.90;99.90;;;;;;5089149;28;20259;-77
2024/01/25 06:02:48;;;;;;;20.47;5.10;;;6.00;99.90;;;;;;5074467;28;20197;-77
2024/01/25 06:05:16;;;;;;;18.77;4.87;;;5.90;99.90;;;;;;5074812;28;20629;-76
2024/01/25 06:07:43;;;;;;;27.80;5.37;;;6.00;99.90;;;;;;5074644;28;20409;-78
2024/01/25 06:10:10;;;;;;;25.03;5.57;;;6.00;99.90;;;;;;5074682;28;20197;-77
2024/01/25 06:12:37;;;;;;;30.40;5.57;;;6.00;99.90;;;;;;5074322;28;20806;-76
2024/01/25 06:15:05;;;;;;;20.97;5.43;;;6.00;99.90;;;;;;5074314;28;20675;-76
2024/01/25 06:17:31;;;;;;;21.17;6.07;;;6.00;99.90;;;;;;5074294;28;20197;-76
2024/01/25 06:19:57;;;;;;;18.77;5.70;;;5.90;99.90;;;;;;5074428;28;20254;-76
2024/01/25 06:22:25;;;;;;;18.20;5.20;;;5.90;99.90;;;;;;5074349;28;20201;-76
2024/01/25 06:24:52;;;;;;;24.87;6.00;;;5.90;99.90;;;;;;5074111;28;20228;-76
2024/01/25 06:27:18;;;;;;;21.23;5.53;;;5.80;99.90;;;;;;5076613;28;20258;-78
2024/01/25 06:29:45;;;;;;;19.07;5.93;;;5.80;99.90;;;;;;5094339;28;20226;-77
2024/01/25 06:32:12;;;;;;;19.43;5.37;;;5.70;99.90;;;;;;5094282;28;20283;-77
2024/01/25 06:34:38;;;;;;;24.63;6.00;;;5.70;99.90;;;;;;5094386;28;20204;-77
2024/01/25 06:37:05;;;;;;;28.83;5.90;;;5.70;99.90;;;;;;5094371;28;20204;-78
2024/01/25 06:39:34;;;;;;;15.87;4.83;;;5.50;99.90;;;;;;5094303;28;20199;-77
2024/01/25 06:42:00;;;;;;;17.40;5.23;;;5.50;99.90;;;;;;5094251;28;20223;-77
2024/01/25 06:44:28;;;;;;;20.73;5.70;;;5.50;99.90;;;;;;5093938;28;20224;-77
2024/01/25 06:46:55;;;;;;;30.70;5.33;;;5.30;99.90;;;;;;5094191;28;20532;-77
2024/01/25 06:49:21;;;;;;;17.83;5.03;;;5.30;99.90;;;;;;5093453;28;20585;-77
2024/01/25 06:51:48;;;;;;;20.40;5.80;;;5.10;99.90;;;;;;5093968;28;20227;-76
2024/01/25 06:54:15;;;;;;;28.80;5.60;;;5.10;99.90;;;;;;5093801;28;20602;-77
2024/01/25 06:56:43;;;;;;;25.80;6.30;;;5.10;99.90;;;;;;5093684;28;20207;-76
2024/01/25 06:59:09;;;;;;;17.03;5.33;;;5.00;99.90;;;;;;5093706;28;20203;-77
2024/01/25 07:01:36;;;;;;;19.43;6.17;;;5.10;99.90;;;;;;5093913;28;20192;-77
2024/01/25 07:04:03;;;;;;;32.00;6.67;;;5.00;99.90;;;;;;5093699;28;20203;-78
2024/01/25 07:06:30;;;;;;;22.27;5.50;;;5.00;99.90;;;;;;5093717;28;20722;-78
2024/01/25 07:08:57;;;;;;;18.90;4.83;;;4.90;99.90;;;;;;5093744;28;20196;-75
2024/01/25 07:11:24;;;;;;;23.17;5.53;;;4.90;99.90;;;;;;5093574;28;20659;-76
2024/01/25 07:13:52;;;;;;;26.07;5.83;;;4.80;99.90;;;;;;5093590;28;20250;-76
2024/01/25 07:16:19;;;;;;;21.93;5.30;;;4.70;99.90;;;;;;5093349;28;20555;-76
2024/01/25 07:18:46;;;;;;;22.70;6.33;;;4.70;99.90;;;;;;5093496;28;20860;-76
2024/01/25 07:21:13;;;;;;;27.43;5.53;;;4.80;99.90;;;;;;5093485;28;20200;-77
2024/01/25 07:23:39;;;;;;;20.57;5.03;;;4.90;99.90;;;;;;5093446;28;20254;-76
2024/01/25 07:26:06;;;;;;;29.20;5.77;;;4.80;99.90;;;;;;5093288;28;20285;-76
2024/01/25 07:28:33;;;;;;;17.37;5.53;;;4.90;99.90;;;;;;5093291;28;20235;-76
2024/01/25 07:31:01;;;;;;;21.57;5.80;;;4.80;99.90;;;;;;5093496;28;20197;-76
2024/01/25 07:33:28;;;;;;;20.73;4.87;;;4.80;99.90;;;;;;5093265;28;20601;-77
2024/01/25 07:35:58;;;;;;;29.70;6.50;;;4.90;99.90;;;;;;5093310;28;20249;-76
2024/01/25 07:38:24;;;;;;;22.13;5.33;;;4.90;99.90;;;;;;5093311;28;20298;-76
2024/01/25 07:40:52;;;;;;;21.50;4.90;;;5.00;99.90;;;;;;5093049;28;20206;-76
2024/01/25 07:43:18;;;;;;;21.83;5.33;;;5.10;99.90;;;;;;5093469;28;20203;-76
2024/01/25 07:45:45;;;;;;;22.30;5.63;;;5.10;99.90;;;;;;5093204;28;20224;-75
2024/01/25 07:48:13;;;;;;;23.63;6.40;;;5.20;99.90;;;;;;5093115;28;20196;-77
2024/01/25 07:50:40;;;;;;;25.93;5.67;;;5.10;99.90;;;;;;5093024;28;20203;-77
2024/01/25 07:53:06;;;;;;;27.37;4.90;;;5.20;99.90;;;;;;5092947;28;20193;-77
2024/01/25 07:55:33;;;;;;;20.43;5.23;;;5.10;99.90;;;;;;5092942;28;20200;-77
2024/01/25 07:58:00;;;;;;;21.90;4.43;;;5.20;99.90;;;;;;5093211;28;20223;-77
2024/01/25 08:00:27;;;;;;;24.00;5.43;;;5.20;99.90;;;;;;5092617;28;20204;-77
2024/01/25 08:02:53;;;;;;;20.70;6.53;;;5.30;99.90;;;;;;5093762;28;20279;-77
2024/01/25 08:05:21;;;;;;;26.53;6.03;;;5.30;99.90;;;;;;5100148;28;20228;-77
2024/01/25 08:07:48;;;;;;;22.67;5.40;;;5.30;99.90;;;;;;5092830;28;20648;-76
2024/01/25 08:10:15;;;;;;;23.27;5.50;;;5.40;99.90;;;;;;5093077;28;20232;-76
2024/01/25 08:12:43;;;;;;;22.83;5.10;;;5.40;99.90;;;;;;5092977;28;20192;-77
2024/01/25 08:15:10;;;;;;;20.70;5.83;;;5.50;99.90;;;;;;5093298;28;20208;-76
2024/01/25 08:17:38;;;;;;;22.40;5.47;;;5.50;99.90;;;;;;5092934;28;20196;-76
2024/01/25 08:20:06;;;;;;;26.03;6.10;;;5.60;99.90;;;;;;5092859;28;20238;-76
2024/01/25 08:22:34;;;;;;;24.47;5.90;;;5.60;99.90;;;;;;5093241;28;20278;-77
2024/01/25 08:25:01;;;;;;;35.33;6.77;;;5.70;99.90;;;;;;5093031;28;20219;-76
2024/01/25 08:27:27;;;;;;;23.70;5.97;;;5.70;99.90;;;;;;5092694;28;20228;-76
2024/01/25 08:29:54;;;;;;;25.93;5.50;;;5.70;99.90;;;;;;5092850;28;20629;-79
2024/01/25 08:32:21;;;;;;;22.27;5.07;;;5.70;99.90;;;;;;5092756;28;20193;-80
2024/01/25 08:34:47;;;;;;;20.00;5.50;;;5.80;99.90;;;;;;5092598;28;20196;-79
2024/01/25 08:37:14;;;;;;;24.57;5.83;;;5.90;99.90;;;;;;5092579;28;20204;-79
2024/01/25 08:39:43;;;;;;;24.50;5.80;;;6.00;99.90;;;;;;5092756;28;20200;-78
2024/01/25 08:42:10;;;;;;;20.77;5.40;;;6.10;99.90;;;;;;5092807;28;20196;-79
2024/01/25 08:44:39;;;;;;;19.77;5.70;;;6.20;99.90;;;;;;5092495;28;20229;-80
2024/01/25 08:47:06;;;;;;;23.77;6.00;;;6.40;99.90;;;;;;5092782;28;20205;-77
2024/01/25 08:49:33;;;;;;;19.07;5.20;;;6.50;99.90;;;;;;5092683;28;20246;-80
2024/01/25 08:51:59;;;;;;;20.20;5.30;;;6.70;99.90;;;;;;5092447;28;20695;-81
2024/01/25 08:54:26;;;;;;;17.70;4.20;;;6.70;99.90;;;;;;5092711;28;20204;-81
2024/01/25 08:56:54;;;;;;;23.17;5.37;;;6.80;99.90;;;;;;5092814;28;20200;-78
2024/01/25 08:59:21;;;;;;;17.97;5.37;;;6.80;99.90;;;;;;5092591;28;20200;-79
2024/01/25 09:01:47;;;;;;;17.87;4.93;;;6.90;99.90;;;;;;5092438;28;20208;-78
2024/01/25 09:04:14;;;;;;;18.47;4.90;;;6.90;99.90;;;;;;5092330;28;20194;-78
2024/01/25 09:06:41;;;;;;;25.07;5.57;;;7.00;99.90;;;;;;5092327;28;20553;-79
2024/01/25 09:09:08;;;;;;;25.77;4.73;;;7.10;99.90;;;;;;5092647;28;20204;-79
2024/01/25 09:11:35;;;;;;;16.00;4.60;;;7.20;99.90;;;;;;5092741;28;20203;-79
2024/01/25 09:14:03;;;;;;;27.90;5.70;;;7.30;99.90;;;;;;5096121;28;20201;-79
2024/01/25 09:16:30;;;;;;;23.87;5.20;;;7.40;99.90;;;;;;5095963;28;20598;-77
2024/01/25 09:18:57;;;;;;;19.43;4.87;;;7.50;99.90;;;;;;5095653;28;20203;-78
2024/01/25 09:21:23;;;;;;;26.07;5.83;;;7.60;99.90;;;;;;5095994;28;20197;-80
2024/01/25 09:23:50;;;;;;;27.80;5.97;;;7.80;99.90;;;;;;5095924;28;20344;-78
2024/01/25 09:26:17;;;;;;;19.63;5.47;;;7.90;99.90;;;;;;5095846;28;20232;-78
2024/01/25 09:28:43;;;;;;;20.17;4.93;;;7.80;99.90;;;;;;5095586;28;20239;-78
2024/01/25 09:31:11;;;;;;;29.13;5.73;;;7.80;99.90;;;;;;5095612;28;20200;-78
2024/01/25 09:33:38;;;;;;;21.73;5.60;;;7.80;99.90;;;;;;5095576;28;20245;-74
2024/01/25 09:36:05;;;;;;;23.50;5.63;;;7.70;99.90;;;;;;5095638;28;20254;-78
2024/01/25 09:38:32;;;;;;;21.70;5.27;;;7.60;99.90;;;;;;5095419;28;20565;-77
2024/01/25 09:40:59;;;;;;;20.27;4.47;;;7.80;99.90;;;;;;5095428;28;20222;-78
2024/01/25 09:43:26;;;;;;;23.63;6.00;;;7.80;99.90;;;;;;5095380;28;20235;-78
2024/01/25 09:45:54;;;;;;;25.93;5.40;;;8.00;99.90;;;;;;5095123;28;20693;-78
2024/01/25 09:48:22;;;;;;;17.73;5.43;;;8.10;99.90;;;;;;5095282;28;20533;-78
2024/01/25 09:50:49;;;;;;;30.73;5.40;;;8.20;99.90;;;;;;5095337;28;20200;-79
2024/01/25 09:53:21;;;;;;;24.73;5.63;;;8.00;99.90;;;;;;5095315;28;20200;-78
2024/01/25 09:55:55;;;;;;;19.83;5.00;;;8.30;99.90;;;;;;5095260;28;20208;-77
2024/01/25 09:58:22;;;;;;;20.90;5.13;;;8.30;99.90;;;;;;5095056;28;20200;-77
2024/01/25 10:00:49;;;;;;;18.03;5.07;;;8.30;99.90;;;;;;5095192;28;20216;-77
2024/01/25 10:03:16;;;;;;;20.77;5.57;;;8.30;99.90;;;;;;5095082;28;20265;-78
2024/01/25 10:05:44;;;;;;;20.37;5.07;;;8.30;99.90;;;;;;5094933;28;20285;-77
2024/01/25 10:08:14;;;;;;;19.13;5.43;;;8.30;99.90;;;;;;5094818;28;20246;-78
2024/01/25 10:10:41;;;;;;;17.97;5.23;;;8.20;99.90;;;;;;5094857;28;20613;-78
2024/01/25 10:13:13;;;;;;;23.60;5.73;;;8.20;99.90;;;;;;5094862;28;20651;-77
2024/01/25 10:15:41;;;;;;;22.23;5.33;;;8.30;99.90;;;;;;5094942;28;20812;-78
2024/01/25 10:18:12;;;;;;;24.13;5.73;;;8.20;99.90;;;;;;5094841;28;20708;-77
2024/01/25 10:20:40;;;;;;;21.97;5.47;;;8.00;99.90;;;;;;5094878;28;20283;-77
2024/01/25 10:23:08;;;;;;;24.60;5.87;;;8.10;99.90;;;;;;5094302;28;20197;-78
2024/01/25 10:25:35;;;;;;;14.70;4.60;;;8.20;99.90;;;;;;5094565;28;20223;-77
2024/01/25 10:28:02;;;;;;;14.77;4.60;;;8.40;99.90;;;;;;5094593;28;20228;-78
2024/01/25 10:30:33;;;;;;;26.23;5.83;;;8.20;99.90;;;;;;5094487;28;20231;-78
2024/01/25 10:33:00;;;;;;;17.47;5.10;;;8.10;99.90;;;;;;5094290;28;20634;-77
2024/01/25 10:35:28;;;;;;;19.73;5.23;;;8.30;99.90;;;;;;5094443;28;20273;-77
2024/01/25 10:37:56;;;;;;;16.83;4.87;;;9.10;99.90;;;;;;5094310;28;20200;-77
2024/01/25 10:40:24;;;;;;;15.10;5.10;;;9.60;99.90;;;;;;5094467;28;20224;-78
2024/01/25 10:42:51;;;;;;;18.90;5.57;;;10.20;99.90;;;;;;5094196;28;20598;-78
2024/01/25 10:45:18;;;;;;;17.67;5.27;;;10.80;99.90;;;;;;5094356;28;20270;-78
2024/01/25 10:47:49;;;;;;;18.80;5.27;;;10.80;99.90;;;;;;5094228;28;20282;-78
2024/01/25 10:50:16;;;;;;;16.90;5.00;;;11.10;99.90;;;;;;5094149;28;20200;-78
2024/01/25 10:52:44;;;;;;;19.10;5.57;;;10.40;99.90;;;;;;5093901;28;20200;-77
2024/01/25 10:55:12;;;;;;;22.53;5.10;;;9.80;99.90;;;;;;5094067;28;20208;-77
2024/01/25 10:57:43;;;;;;;19.03;5.47;;;9.20;99.90;;;;;;5094117;28;20192;-78
2024/01/25 11:00:11;;;;;;;18.27;5.03;;;9.70;99.90;;;;;;5094031;28;20200;-78
2024/01/25 11:02:40;;;;;;;13.63;4.07;;;9.50;99.90;;;;;;5093852;28;20659;-77
2024/01/25 11:05:09;;;;;;;17.60;5.50;;;9.00;99.90;;;;;;5093690;28;20283;-78
2024/01/25 11:07:43;;;;;;;23.80;5.87;;;9.00;99.90;;;;;;5093882;28;20285;-77
2024/01/25 11:10:15;;;;;;;19.73;5.00;;;8.90;99.90;;;;;;5093930;28;20195;-77
2024/01/25 11:12:50;;;;;;;19.20;5.33;;;8.80;99.90;;;;;;5093636;28;20249;-78
2024/01/25 11:15:22;;;;;;;19.40;5.73;;;8.80;99.90;;;;;;5093745;28;20232;-78
2024/01/25 11:17:53;;;;;;;23.03;5.50;;;9.30;99.90;;;;;;5093918;28;20657;-78
2024/01/25 11:20:24;;;;;;;18.53;5.17;;;9.50;99.90;;;;;;5093801;28;20200;-78
2024/01/25 11:22:59;;;;;;;15.47;4.63;;;9.50;99.90;;;;;;5093493;28;20648;-78
2024/01/25 11:25:28;;;;;;;18.33;5.00;;;10.10;99.90;;;;;;5093399;28;20686;-78
2024/01/25 11:27:56;;;;;;;15.77;5.20;;;10.60;99.90;;;;;;5093387;28;20228;-78
2024/01/25 11:30:23;;;;;;;18.90;5.30;;;11.20;99.90;;;;;;5093636;28;20656;-77
2024/01/25 11:32:50;;;;;;;15.93;4.93;;;11.20;99.90;;;;;;5101622;28;20585;-77
2024/01/25 11:35:18;;;;;;;19.63;4.63;;;11.10;99.90;;;;;;5092523;28;20547;-78
2024/01/25 11:37:45;;;;;;;14.67;4.33;;;10.80;99.90;;;;;;5093313;28;20197;-77
2024/01/25 11:40:13;;;;;;;14.53;4.10;;;10.30;99.90;;;;;;5093262;28;20250;-77
2024/01/25 11:42:40;;;;;;;13.00;4.13;;;10.00;99.90;;;;;;5093540;28;20287;-77
2024/01/25 11:45:12;;;;;;;15.73;4.70;;;10.00;99.90;;;;;;5093375;28;20200;-78
2024/01/25 11:47:39;;;;;;;16.40;4.93;;;10.70;99.90;;;;;;5093010;28;20232;-78
2024/01/25 11:50:08;;;;;;;17.73;5.30;;;10.80;99.90;;;;;;5093017;28;20604;-78
2024/01/25 11:52:35;;;;;;;11.50;4.13;;;11.20;99.90;;;;;;5092867;28;20200;-78
2024/01/25 11:55:03;;;;;;;17.40;5.00;;;11.20;99.90;;;;;;5092870;28;20196;-78
2024/01/25 11:57:31;;;;;;;20.00;4.30;;;11.10;99.90;;;;;;5093080;28;20196;-78
2024/01/25 11:59:58;;;;;;;17.93;5.00;;;11.20;99.90;;;;;;5093055;28;20200;-78
2024/01/25 12:02:27;;;;;;;15.67;5.30;;;10.50;99.90;;;;;;5092791;28;20201;-78
2024/01/25 12:04:55;;;;;;;15.00;4.63;;;10.70;99.90;;;;;;5093013;28;20250;-78
2024/01/25 12:07:22;;;;;;;17.97;4.67;;;10.90;99.90;;;;;;5092721;28;20220;-78
2024/01/25 12:09:58;;;;;;;16.90;4.83;;;10.80;99.90;;;;;;5092713;28;20647;-78
2024/01/25 12:12:25;;;;;;;14.37;4.90;;;10.40;99.90;;;;;;5092874;28;20789;-78
2024/01/25 12:14:52;;;;;;;18.47;4.77;;;10.60;99.90;;;;;;5092809;28;20196;-77
2024/01/25 12:17:19;;;;;;;13.57;4.70;;;11.20;99.90;;;;;;5092874;28;20295;-77
2024/01/25 12:19:47;;;;;;;13.97;4.40;;;11.60;99.90;;;;;;5092925;28;20196;-79
2024/01/25 12:22:21;;;;;;;15.43;4.57;;;11.40;99.90;;;;;;5092699;28;20196;-78
2024/01/25 12:24:48;;;;;;;17.07;4.50;;;10.50;99.90;;;;;;5092857;28;20196;-78
2024/01/25 12:27:16;;;;;;;17.10;4.47;;;10.50;99.90;;;;;;5092444;28;20316;-78
2024/01/25 12:29:44;;;;;;;13.73;5.00;;;10.20;99.90;;;;;;5092700;28;20261;-78
2024/01/25 12:32:10;;;;;;;17.17;4.13;;;10.60;99.90;;;;;;5092929;28;20224;-78
2024/01/25 12:34:39;;;;;;;13.27;4.40;;;10.50;99.90;;;;;;5092700;28;20230;-78
2024/01/25 12:37:07;;;;;;;16.70;4.70;;;9.90;99.90;;;;;;5092556;28;20667;-78
2024/01/25 12:39:34;;;;;;;18.03;4.97;;;9.60;99.90;;;;;;5092704;28;20204;-77
2024/01/25 12:42:00;;;;;;;14.90;4.50;;;9.40;99.90;;;;;;5092643;28;20197;-78
2024/01/25 12:44:27;;;;;;;13.37;4.10;;;9.40;99.90;;;;;;5092620;28;20200;-77
2024/01/25 12:46:54;;;;;;;16.07;4.60;;;9.60;99.90;;;;;;5093307;28;20622;-77